Eaton Socon, United Kingdom
Current Conditions -  °F | °C
As of 12:50 PM on Sunday 28 Dec 2014 (Local Time) from EGTC Reporting Station
Clear Clear  
Wind Chill: 37°   Ceiling: Unl
Heat Index: 41°   Visibility: 6mi
Dew Point: 34°   Wind: 6mph
Humidity: 76%   Direction: 30°NNE
Pressure: 30.48"   Gusts: NA
Location:  52.22°N, 0.29°W
Report Text: EGTC 281250Z 03005KT 360V070 CAVOK 05/01 Q1032
Loading
Personal Weather Stations






























Interactive Weather Map New forecast layout! Learn more

10-Day Weather Forecast

Advertisements
Track Severe Weather on mobile